Capitol Logistics 442


KPHL
Philadelphia International Airport
Philadelphia, Pennsylvania, US
KCVG
Cincinnati/Northern Kentucky International Airport
Covington, Kentucky, US

Activity Log

Date Flight Route Aircraft Duration
09/23/2019 CPX442 MXE PENSY J110 FLIRT J6 MRB J6 COLNS GAVNN4 B738 1h 37m

Route Details

Aircraft Information
Primary: Boeing 737-800BCF
Backup: Not Available
Route Data
Distance: 440nm
Sched. Duration: 1h 47m
Avg. Duration: 1h 37m (-9m)
Times Flown: 1
Recm'd Route: MXE PENSY J110 FLIRT J6 MRB J6 COLNS GAVNN4
Planned Altitude: 32,000ft
Origin Wx: KPHL 181554Z 09005KT 10SM FEW023 SCT030 SCT075 BKN180 11/03 A3021 RMK AO2 SLP229 T01060033 $
Dest. Wx: KCVG 181603Z 31014KT 3SM -RA BR BKN008 BKN013 OVC030 10/08 A3004 RMK AO2 SFC VIS 5 P0000 T01000083
Notes:

Financial History
Total Freight: 25,872lbs
Average Load: 25,872lbs/flt
Fuel Used: 7,833lbs
Avg. Fuel Used: 7,833lbs/flt
Fuel Expense: $7,050
Avg. Fuel Expense: $7,050
Avg. Fuel Cost: $0.90/lbs
Total Gross Income: $32,857
Pilot Pay: $229
Total Expenses: $3,601
Total Revenue: $21,817
Average Revenue: $32,857.44